sensor_id;sensor_type;location;lat;lon;timestamp;pressure;altitude;pressure_sealevel;temperature
13219;BMP180;6674;49.152;11.918;2022-12-18T00:02:04;97172.69;;;-2.87
13219;BMP180;6674;49.152;11.918;2022-12-18T00:04:31;97158.50;;;-3.12
13219;BMP180;6674;49.152;11.918;2022-12-18T00:06:57;97160.19;;;-3.01
13219;BMP180;6674;49.152;11.918;2022-12-18T00:09:24;97164.63;;;-2.92
13219;BMP180;6674;49.152;11.918;2022-12-18T00:11:52;97168.16;;;-2.94
13219;BMP180;6674;49.152;11.918;2022-12-18T00:14:19;97164.34;;;-3.00
13219;BMP180;6674;49.152;11.918;2022-12-18T00:16:46;97158.03;;;-2.94
13219;BMP180;6674;49.152;11.918;2022-12-18T00:19:13;97161.41;;;-2.94
13219;BMP180;6674;49.152;11.918;2022-12-18T00:21:41;97173.88;;;-2.92
13219;BMP180;6674;49.152;11.918;2022-12-18T00:24:09;97182.88;;;-2.88
13219;BMP180;6674;49.152;11.918;2022-12-18T00:26:37;97189.53;;;-2.87
13219;BMP180;6674;49.152;11.918;2022-12-18T00:29:06;97200.25;;;-2.84
13219;BMP180;6674;49.152;11.918;2022-12-18T00:31:34;97193.38;;;-2.82
13219;BMP180;6674;49.152;11.918;2022-12-18T00:34:01;97191.53;;;-2.80
13219;BMP180;6674;49.152;11.918;2022-12-18T00:36:29;97197.38;;;-2.79
13219;BMP180;6674;49.152;11.918;2022-12-18T00:38:57;97203.03;;;-2.76
13219;BMP180;6674;49.152;11.918;2022-12-18T00:41:24;97204.88;;;-2.78
13219;BMP180;6674;49.152;11.918;2022-12-18T00:44:11;97208.31;;;-2.79
13219;BMP180;6674;49.152;11.918;2022-12-18T00:46:38;97210.00;;;-2.79
13219;BMP180;6674;49.152;11.918;2022-12-18T00:49:05;97211.63;;;-2.78
13219;BMP180;6674;49.152;11.918;2022-12-18T00:51:32;97209.91;;;-2.78
13219;BMP180;6674;49.152;11.918;2022-12-18T00:53:59;97214.97;;;-2.78
13219;BMP180;6674;49.152;11.918;2022-12-18T00:56:26;97199.91;;;-2.79
13219;BMP180;6674;49.152;11.918;2022-12-18T00:58:52;97204.88;;;-2.78
13219;BMP180;6674;49.152;11.918;2022-12-18T01:01:20;97199.22;;;-2.81
13219;BMP180;6674;49.152;11.918;2022-12-18T01:03:47;97204.56;;;-2.86
13219;BMP180;6674;49.152;11.918;2022-12-18T01:06:15;97205.59;;;-2.88
13219;BMP180;6674;49.152;11.918;2022-12-18T01:08:42;97198.63;;;-2.85
13219;BMP180;6674;49.152;11.918;2022-12-18T01:11:11;97203.56;;;-2.83
13219;BMP180;6674;49.152;11.918;2022-12-18T01:13:38;97199.22;;;-2.81
13219;BMP180;6674;49.152;11.918;2022-12-18T01:16:05;97208.53;;;-2.82
13219;BMP180;6674;49.152;11.918;2022-12-18T01:18:33;97204.38;;;-2.83
13219;BMP180;6674;49.152;11.918;2022-12-18T01:21:00;97201.94;;;-2.84
13219;BMP180;6674;49.152;11.918;2022-12-18T01:23:26;97203.47;;;-2.82
13219;BMP180;6674;49.152;11.918;2022-12-18T01:25:53;97203.69;;;-2.85
13219;BMP180;6674;49.152;11.918;2022-12-18T01:28:20;97201.84;;;-2.83
13219;BMP180;6674;49.152;11.918;2022-12-18T01:30:46;97198.03;;;-2.88
13219;BMP180;6674;49.152;11.918;2022-12-18T01:33:13;97203.88;;;-2.88
13219;BMP180;6674;49.152;11.918;2022-12-18T01:35:42;97210.56;;;-2.87
13219;BMP180;6674;49.152;11.918;2022-12-18T01:38:09;97214.19;;;-2.91
13219;BMP180;6674;49.152;11.918;2022-12-18T01:40:36;97224.38;;;-2.92
13219;BMP180;6674;49.152;11.918;2022-12-18T01:43:03;97230.25;;;-2.92
13219;BMP180;6674;49.152;11.918;2022-12-18T01:45:30;97223.00;;;-2.96
13219;BMP180;6674;49.152;11.918;2022-12-18T01:47:59;97223.00;;;-2.96
13219;BMP180;6674;49.152;11.918;2022-12-18T01:53:42;97219.28;;;-3.03
13219;BMP180;6674;49.152;11.918;2022-12-18T01:56:12;97228.78;;;-3.06
13219;BMP180;6674;49.152;11.918;2022-12-18T01:58:46;97229.56;;;-3.06
13219;BMP180;6674;49.152;11.918;2022-12-18T02:01:14;97233.00;;;-3.07
13219;BMP180;6674;49.152;11.918;2022-12-18T02:03:41;97243.41;;;-3.11
13219;BMP180;6674;49.152;11.918;2022-12-18T02:06:13;97243.28;;;-3.10
13219;BMP180;6674;49.152;11.918;2022-12-18T02:08:50;97237.25;;;-3.07
13219;BMP180;6674;49.152;11.918;2022-12-18T02:11:25;97242.50;;;-3.10
13219;BMP180;6674;49.152;11.918;2022-12-18T02:14:04;97235.13;;;-3.13
13219;BMP180;6674;49.152;11.918;2022-12-18T02:16:39;97232.00;;;-3.17
13219;BMP180;6674;49.152;11.918;2022-12-18T02:19:17;97244.63;;;-3.17
13219;BMP180;6674;49.152;11.918;2022-12-18T02:21:49;97247.97;;;-3.16
13219;BMP180;6674;49.152;11.918;2022-12-18T02:24:28;97248.56;;;-3.13
13219;BMP180;6674;49.152;11.918;2022-12-18T02:26:59;97246.94;;;-3.14
13219;BMP180;6674;49.152;11.918;2022-12-18T02:29:31;97242.69;;;-3.13
13219;BMP180;6674;49.152;11.918;2022-12-18T02:32:00;97236.44;;;-3.20
13219;BMP180;6674;49.152;11.918;2022-12-18T02:34:31;97236.44;;;-3.20
13219;BMP180;6674;49.152;11.918;2022-12-18T02:37:02;97237.66;;;-3.26
13219;BMP180;6674;49.152;11.918;2022-12-18T02:39:30;97247.94;;;-3.29
13219;BMP180;6674;49.152;11.918;2022-12-18T02:42:00;97236.84;;;-3.39
13219;BMP180;6674;49.152;11.918;2022-12-18T02:44:33;97234.63;;;-3.43
13219;BMP180;6674;49.152;11.918;2022-12-18T02:47:01;97250.66;;;-3.44
13219;BMP180;6674;49.152;11.918;2022-12-18T02:49:33;97244.22;;;-3.48
13219;BMP180;6674;49.152;11.918;2022-12-18T02:52:07;97245.94;;;-3.48
13219;BMP180;6674;49.152;11.918;2022-12-18T02:54:45;97253.59;;;-3.50
13219;BMP180;6674;49.152;11.918;2022-12-18T02:57:20;97249.44;;;-3.51
13219;BMP180;6674;49.152;11.918;2022-12-18T02:59:56;97260.34;;;-3.50
13219;BMP180;6674;49.152;11.918;2022-12-18T03:02:29;97256.13;;;-3.50
13219;BMP180;6674;49.152;11.918;2022-12-18T03:05:02;97242.06;;;-3.54
13219;BMP180;6674;49.152;11.918;2022-12-18T03:07:37;97234.84;;;-3.58
13219;BMP180;6674;49.152;11.918;2022-12-18T03:10:07;97237.34;;;-3.58
13219;BMP180;6674;49.152;11.918;2022-12-18T03:12:39;97236.72;;;-3.62
13219;BMP180;6674;49.152;11.918;2022-12-18T03:15:09;97245.91;;;-3.61
13219;BMP180;6674;49.152;11.918;2022-12-18T03:17:42;97246.81;;;-3.62
13219;BMP180;6674;49.152;11.918;2022-12-18T03:20:17;97242.88;;;-3.66
13219;BMP180;6674;49.152;11.918;2022-12-18T03:22:49;97240.25;;;-3.64
13219;BMP180;6674;49.152;11.918;2022-12-18T03:25:19;97233.69;;;-3.67
13219;BMP180;6674;49.152;11.918;2022-12-18T03:27:49;97234.63;;;-3.68
13219;BMP180;6674;49.152;11.918;2022-12-18T03:30:17;97238.03;;;-3.69
13219;BMP180;6674;49.152;11.918;2022-12-18T03:32:47;97240.66;;;-3.70
13219;BMP180;6674;49.152;11.918;2022-12-18T03:35:18;97227.16;;;-3.69
13219;BMP180;6674;49.152;11.918;2022-12-18T03:37:46;97237.13;;;-3.68
13219;BMP180;6674;49.152;11.918;2022-12-18T03:40:13;97233.81;;;-3.68
13219;BMP180;6674;49.152;11.918;2022-12-18T03:42:45;97233.91;;;-3.70
13219;BMP180;6674;49.152;11.918;2022-12-18T03:45:20;97228.13;;;-3.72
13219;BMP180;6674;49.152;11.918;2022-12-18T03:47:58;97238.03;;;-3.69
13219;BMP180;6674;49.152;11.918;2022-12-18T03:50:30;97235.41;;;-3.67
13219;BMP180;6674;49.152;11.918;2022-12-18T03:53:09;97242.19;;;-3.68
13219;BMP180;6674;49.152;11.918;2022-12-18T03:55:41;97237.03;;;-3.66
13219;BMP180;6674;49.152;11.918;2022-12-18T03:58:08;97243.69;;;-3.65
13219;BMP180;6674;49.152;11.918;2022-12-18T04:00:39;97244.69;;;-3.68
13219;BMP180;6674;49.152;11.918;2022-12-18T04:03:07;97258.19;;;-3.69
13219;BMP180;6674;49.152;11.918;2022-12-18T04:05:35;97250.63;;;-3.69
13219;BMP180;6674;49.152;11.918;2022-12-18T04:08:04;97259.84;;;-3.68
13219;BMP180;6674;49.152;11.918;2022-12-18T04:10:37;97260.63;;;-3.67
13219;BMP180;6674;49.152;11.918;2022-12-18T04:13:04;97253.16;;;-3.69
13219;BMP180;6674;49.152;11.918;2022-12-18T04:15:34;97264.06;;;-3.68
13219;BMP180;6674;49.152;11.918;2022-12-18T04:18:03;97259.13;;;-3.70
13219;BMP180;6674;49.152;11.918;2022-12-18T04:20:29;97253.56;;;-3.75
13219;BMP180;6674;49.152;11.918;2022-12-18T04:22:57;97253.34;;;-3.72
13219;BMP180;6674;49.152;11.918;2022-12-18T04:25:24;97261.75;;;-3.71
13219;BMP180;6674;49.152;11.918;2022-12-18T04:27:50;97260.03;;;-3.71
13219;BMP180;6674;49.152;11.918;2022-12-18T04:30:17;97262.44;;;-3.69
13219;BMP180;6674;49.152;11.918;2022-12-18T04:32:44;97271.72;;;-3.70
13219;BMP180;6674;49.152;11.918;2022-12-18T04:35:12;97281.59;;;-3.67
13219;BMP180;6674;49.152;11.918;2022-12-18T04:37:40;97268.91;;;-3.65
13219;BMP180;6674;49.152;11.918;2022-12-18T04:40:08;97274.53;;;-3.62
13219;BMP180;6674;49.152;11.918;2022-12-18T04:42:35;97279.72;;;-3.63
13219;BMP180;6674;49.152;11.918;2022-12-18T04:45:03;97279.50;;;-3.60
13219;BMP180;6674;49.152;11.918;2022-12-18T04:47:30;97276.78;;;-3.57
13219;BMP180;6674;49.152;11.918;2022-12-18T04:49:57;97275.78;;;-3.55
13219;BMP180;6674;49.152;11.918;2022-12-18T04:52:26;97279.91;;;-3.54
13219;BMP180;6674;49.152;11.918;2022-12-18T04:54:52;97285.69;;;-3.52
13219;BMP180;6674;49.152;11.918;2022-12-18T04:57:21;97272.16;;;-3.51
13219;BMP180;6674;49.152;11.918;2022-12-18T04:59:48;97272.16;;;-3.51
13219;BMP180;6674;49.152;11.918;2022-12-18T05:02:15;97285.88;;;-3.55
13219;BMP180;6674;49.152;11.918;2022-12-18T05:04:43;97287.28;;;-3.51
13219;BMP180;6674;49.152;11.918;2022-12-18T05:07:10;97280.41;;;-3.49
13219;BMP180;6674;49.152;11.918;2022-12-18T05:09:38;97286.38;;;-3.50
13219;BMP180;6674;49.152;11.918;2022-12-18T05:12:05;97285.69;;;-3.52
13219;BMP180;6674;49.152;11.918;2022-12-18T05:14:32;97288.72;;;-3.47
13219;BMP180;6674;49.152;11.918;2022-12-18T05:16:59;97291.16;;;-3.45
13219;BMP180;6674;49.152;11.918;2022-12-18T05:19:25;97291.84;;;-3.43
13219;BMP180;6674;49.152;11.918;2022-12-18T05:21:52;97288.50;;;-3.44
13219;BMP180;6674;49.152;11.918;2022-12-18T05:24:19;97287.59;;;-3.43
13219;BMP180;6674;49.152;11.918;2022-12-18T05:26:48;97290.91;;;-3.43
13219;BMP180;6674;49.152;11.918;2022-12-18T05:29:15;97287.31;;;-3.39
13219;BMP180;6674;49.152;11.918;2022-12-18T05:31:41;97294.69;;;-3.36
13219;BMP180;6674;49.152;11.918;2022-12-18T05:34:08;97294.78;;;-3.37
13219;BMP180;6674;49.152;11.918;2022-12-18T05:36:35;97289.94;;;-3.40
13219;BMP180;6674;49.152;11.918;2022-12-18T05:39:02;97293.72;;;-3.59
13219;BMP180;6674;49.152;11.918;2022-12-18T05:41:29;97315.94;;;-3.52
13219;BMP180;6674;49.152;11.918;2022-12-18T05:43:58;97307.31;;;-3.62
13219;BMP180;6674;49.152;11.918;2022-12-18T05:46:27;97303.59;;;-3.69
13219;BMP180;6674;49.152;11.918;2022-12-18T05:48:59;97301.59;;;-3.64
13219;BMP180;6674;49.152;11.918;2022-12-18T05:51:26;97311.47;;;-3.61
13219;BMP180;6674;49.152;11.918;2022-12-18T05:53:52;97322.59;;;-3.51
13219;BMP180;6674;49.152;11.918;2022-12-18T05:56:20;97321.00;;;-3.52
13219;BMP180;6674;49.152;11.918;2022-12-18T05:58:51;97324.13;;;-3.48
13219;BMP180;6674;49.152;11.918;2022-12-18T06:01:21;97317.97;;;-3.44
13219;BMP180;6674;49.152;11.918;2022-12-18T06:03:49;97321.78;;;-3.39
13219;BMP180;6674;49.152;11.918;2022-12-18T06:06:18;97315.94;;;-3.40
13219;BMP180;6674;49.152;11.918;2022-12-18T06:08:45;97315.94;;;-3.40
13219;BMP180;6674;49.152;11.918;2022-12-18T06:11:12;97319.09;;;-3.36
13219;BMP180;6674;49.152;11.918;2022-12-18T06:13:39;97318.88;;;-3.33
13219;BMP180;6674;49.152;11.918;2022-12-18T06:16:06;97319.50;;;-3.30
13219;BMP180;6674;49.152;11.918;2022-12-18T06:18:34;97315.97;;;-3.27
13219;BMP180;6674;49.152;11.918;2022-12-18T06:21:02;97327.66;;;-3.26
13219;BMP180;6674;49.152;11.918;2022-12-18T06:23:29;97323.25;;;-3.23
13219;BMP180;6674;49.152;11.918;2022-12-18T06:25:55;97322.53;;;-3.37
13219;BMP180;6674;49.152;11.918;2022-12-18T06:28:22;97339.25;;;-3.36
13219;BMP180;6674;49.152;11.918;2022-12-18T06:30:49;97337.84;;;-3.40
13219;BMP180;6674;49.152;11.918;2022-12-18T06:33:16;97334.13;;;-3.35
13219;BMP180;6674;49.152;11.918;2022-12-18T06:35:44;97341.41;;;-3.30
13219;BMP180;6674;49.152;11.918;2022-12-18T06:38:12;97337.66;;;-3.37
13219;BMP180;6674;49.152;11.918;2022-12-18T06:40:39;97334.97;;;-3.34
13219;BMP180;6674;49.152;11.918;2022-12-18T06:43:06;97346.44;;;-3.30
13219;BMP180;6674;49.152;11.918;2022-12-18T06:45:33;97341.09;;;-3.38
13219;BMP180;6674;49.152;11.918;2022-12-18T06:47:59;97347.63;;;-3.48
13219;BMP180;6674;49.152;11.918;2022-12-18T06:50:26;97346.13;;;-3.38
13219;BMP180;6674;49.152;11.918;2022-12-18T06:52:54;97349.97;;;-3.45
13219;BMP180;6674;49.152;11.918;2022-12-18T06:55:22;97358.13;;;-3.42
13219;BMP180;6674;49.152;11.918;2022-12-18T06:57:49;97360.75;;;-3.43
13219;BMP180;6674;49.152;11.918;2022-12-18T07:00:17;97357.00;;;-3.50
13219;BMP180;6674;49.152;11.918;2022-12-18T07:02:44;97361.72;;;-3.58
13219;BMP180;6674;49.152;11.918;2022-12-18T07:05:11;97375.41;;;-3.62
13219;BMP180;6674;49.152;11.918;2022-12-18T07:07:37;97373.22;;;-3.54
13219;BMP180;6674;49.152;11.918;2022-12-18T07:10:06;97366.16;;;-3.61
13219;BMP180;6674;49.152;11.918;2022-12-18T07:12:34;97378.88;;;-3.50
13219;BMP180;6674;49.152;11.918;2022-12-18T07:15:00;97373.38;;;-3.43
13219;BMP180;6674;49.152;11.918;2022-12-18T07:17:27;97372.25;;;-3.39
13219;BMP180;6674;49.152;11.918;2022-12-18T07:19:54;97384.88;;;-3.39
13219;BMP180;6674;49.152;11.918;2022-12-18T07:22:21;97378.09;;;-3.51
13219;BMP180;6674;49.152;11.918;2022-12-18T07:24:49;97360.09;;;-3.59
13219;BMP180;6674;49.152;11.918;2022-12-18T07:27:17;97356.00;;;-3.47
13219;BMP180;6674;49.152;11.918;2022-12-18T07:29:43;97354.53;;;-3.64
13219;BMP180;6674;49.152;11.918;2022-12-18T07:32:11;97349.50;;;-3.64
13219;BMP180;6674;49.152;11.918;2022-12-18T07:34:39;97352.41;;;-3.70
13219;BMP180;6674;49.152;11.918;2022-12-18T07:37:06;97347.38;;;-3.70
13219;BMP180;6674;49.152;11.918;2022-12-18T07:39:33;97354.03;;;-3.69
13219;BMP180;6674;49.152;11.918;2022-12-18T07:42:00;97361.16;;;-3.75
13219;BMP180;6674;49.152;11.918;2022-12-18T07:44:46;97360.03;;;-3.84
13219;BMP180;6674;49.152;11.918;2022-12-18T07:47:12;97376.09;;;-3.72
13219;BMP180;6674;49.152;11.918;2022-12-18T07:49:39;97372.34;;;-3.79
13219;BMP180;6674;49.152;11.918;2022-12-18T07:52:05;97372.06;;;-3.75
13219;BMP180;6674;49.152;11.918;2022-12-18T07:54:32;97388.44;;;-3.68
13219;BMP180;6674;49.152;11.918;2022-12-18T07:56:59;97394.19;;;-3.66
13219;BMP180;6674;49.152;11.918;2022-12-18T07:59:27;97389.66;;;-3.61
13219;BMP180;6674;49.152;11.918;2022-12-18T08:01:57;97389.19;;;-3.80
13219;BMP180;6674;49.152;11.918;2022-12-18T08:04:23;97390.53;;;-3.62
13219;BMP180;6674;49.152;11.918;2022-12-18T08:06:50;97388.16;;;-3.51
13219;BMP180;6674;49.152;11.918;2022-12-18T08:09:19;97390.53;;;-3.62
13219;BMP180;6674;49.152;11.918;2022-12-18T08:11:46;97401.91;;;-3.55
13219;BMP180;6674;49.152;11.918;2022-12-18T08:14:13;97400.50;;;-3.46
13219;BMP180;6674;49.152;11.918;2022-12-18T08:16:40;97397.69;;;-3.42
13219;BMP180;6674;49.152;11.918;2022-12-18T08:19:12;97395.50;;;-3.34
13219;BMP180;6674;49.152;11.918;2022-12-18T08:21:40;97404.47;;;-3.30
13219;BMP180;6674;49.152;11.918;2022-12-18T08:24:09;97408.41;;;-3.26
13219;BMP180;6674;49.152;11.918;2022-12-18T08:26:36;97414.53;;;-3.16
13219;BMP180;6674;49.152;11.918;2022-12-18T08:29:03;97414.63;;;-3.18
13219;BMP180;6674;49.152;11.918;2022-12-18T08:31:30;97419.97;;;-3.10
13219;BMP180;6674;49.152;11.918;2022-12-18T08:33:58;97414.53;;;-3.16
13219;BMP180;6674;49.152;11.918;2022-12-18T08:36:26;97415.94;;;-3.12
13219;BMP180;6674;49.152;11.918;2022-12-18T08:38:53;97419.16;;;-3.10
13219;BMP180;6674;49.152;11.918;2022-12-18T08:41:20;97421.22;;;-3.03
13219;BMP180;6674;49.152;11.918;2022-12-18T08:43:47;97414.94;;;-2.98
13219;BMP180;6674;49.152;11.918;2022-12-18T08:46:33;97414.94;;;-2.98
13219;BMP180;6674;49.152;11.918;2022-12-18T08:49:00;97410.19;;;-3.02
13219;BMP180;6674;49.152;11.918;2022-12-18T08:51:28;97423.03;;;-2.93
13219;BMP180;6674;49.152;11.918;2022-12-18T08:53:55;97418.88;;;-3.06
13219;BMP180;6674;49.152;11.918;2022-12-18T08:56:22;97421.78;;;-3.24
13219;BMP180;6674;49.152;11.918;2022-12-18T08:58:51;97421.78;;;-3.12
13219;BMP180;6674;49.152;11.918;2022-12-18T09:01:18;97424.91;;;-3.08
13219;BMP180;6674;49.152;11.918;2022-12-18T09:03:48;97429.50;;;-3.01
13219;BMP180;6674;49.152;11.918;2022-12-18T09:06:18;97417.97;;;-2.93
13219;BMP180;6674;49.152;11.918;2022-12-18T09:08:46;97421.13;;;-2.89
13219;BMP180;6674;49.152;11.918;2022-12-18T09:11:15;97416.56;;;-2.84
13219;BMP180;6674;49.152;11.918;2022-12-18T09:13:44;97428.59;;;-2.88
13219;BMP180;6674;49.152;11.918;2022-12-18T09:16:11;97423.84;;;-2.80
13219;BMP180;6674;49.152;11.918;2022-12-18T09:18:38;97431.44;;;-2.80
13219;BMP180;6674;49.152;11.918;2022-12-18T09:21:09;97422.88;;;-2.77
13219;BMP180;6674;49.152;11.918;2022-12-18T09:23:36;97419.50;;;-2.78
13219;BMP180;6674;49.152;11.918;2022-12-18T09:26:04;97418.41;;;-2.74
13219;BMP180;6674;49.152;11.918;2022-12-18T09:28:31;97416.81;;;-2.62
13219;BMP180;6674;49.152;11.918;2022-12-18T09:30:57;97417.41;;;-2.59
13219;BMP180;6674;49.152;11.918;2022-12-18T09:33:24;97421.84;;;-2.50
13219;BMP180;6674;49.152;11.918;2022-12-18T09:35:51;97418.41;;;-2.49
13219;BMP180;6674;49.152;11.918;2022-12-18T09:38:19;97413.56;;;-2.40
13219;BMP180;6674;49.152;11.918;2022-12-18T09:40:47;97414.97;;;-2.36
13219;BMP180;6674;49.152;11.918;2022-12-18T09:43:18;97409.41;;;-2.41
13219;BMP180;6674;49.152;11.918;2022-12-18T09:45:49;97400.41;;;-2.32
13219;BMP180;6674;49.152;11.918;2022-12-18T09:48:20;97401.63;;;-2.25
13219;BMP180;6674;49.152;11.918;2022-12-18T09:50:48;97400.00;;;-2.39
13219;BMP180;6674;49.152;11.918;2022-12-18T09:53:19;97400.59;;;-2.35
13219;BMP180;6674;49.152;11.918;2022-12-18T09:55:48;97395.03;;;-2.28
13219;BMP180;6674;49.152;11.918;2022-12-18T09:58:22;97399.31;;;-2.28
13219;BMP180;6674;49.152;11.918;2022-12-18T10:00:52;97403.91;;;-2.22
13219;BMP180;6674;49.152;11.918;2022-12-18T10:03:18;97391.91;;;-2.19
13219;BMP180;6674;49.152;11.918;2022-12-18T10:05:54;97385.50;;;-2.12
13219;BMP180;6674;49.152;11.918;2022-12-18T10:08:29;97397.56;;;-2.15
13219;BMP180;6674;49.152;11.918;2022-12-18T10:11:20;97397.31;;;-2.13
13219;BMP180;6674;49.152;11.918;2022-12-18T10:13:52;97380.78;;;-2.29
13219;BMP180;6674;49.152;11.918;2022-12-18T10:16:27;97385.44;;;-2.23
13219;BMP180;6674;49.152;11.918;2022-12-18T10:19:04;97386.06;;;-2.32
13219;BMP180;6674;49.152;11.918;2022-12-18T10:21:37;97393.16;;;-2.37
13219;BMP180;6674;49.152;11.918;2022-12-18T10:24:14;97381.81;;;-2.31
13219;BMP180;6674;49.152;11.918;2022-12-18T10:26:43;97385.22;;;-2.20
13219;BMP180;6674;49.152;11.918;2022-12-18T10:29:13;97377.06;;;-2.36
13219;BMP180;6674;49.152;11.918;2022-12-18T10:31:41;97377.53;;;-2.18
13219;BMP180;6674;49.152;11.918;2022-12-18T10:34:09;97383.69;;;-2.22
13219;BMP180;6674;49.152;11.918;2022-12-18T10:36:36;97375.59;;;-2.15
13219;BMP180;6674;49.152;11.918;2022-12-18T10:39:15;97381.47;;;-2.15
13219;BMP180;6674;49.152;11.918;2022-12-18T10:41:42;97361.72;;;-2.10
13219;BMP180;6674;49.152;11.918;2022-12-18T10:44:16;97359.38;;;-2.36
13219;BMP180;6674;49.152;11.918;2022-12-18T10:46:44;97354.50;;;-2.39
13219;BMP180;6674;49.152;11.918;2022-12-18T10:49:20;97356.94;;;-2.37
13219;BMP180;6674;49.152;11.918;2022-12-18T10:51:48;97349.44;;;-2.26
13219;BMP180;6674;49.152;11.918;2022-12-18T10:54:16;97349.66;;;-2.29
13219;BMP180;6674;49.152;11.918;2022-12-18T10:56:43;97349.84;;;-2.32
13219;BMP180;6674;49.152;11.918;2022-12-18T10:59:15;97363.38;;;-2.21
13219;BMP180;6674;49.152;11.918;2022-12-18T11:01:49;97365.84;;;-2.32
13219;BMP180;6674;49.152;11.918;2022-12-18T11:04:19;97367.53;;;-2.20
13219;BMP180;6674;49.152;11.918;2022-12-18T11:06:58;97364.59;;;-2.14
13219;BMP180;6674;49.152;11.918;2022-12-18T11:09:26;97371.78;;;-2.20
13219;BMP180;6674;49.152;11.918;2022-12-18T11:11:54;97372.03;;;-2.13
13219;BMP180;6674;49.152;11.918;2022-12-18T11:14:23;97379.81;;;-2.03
13219;BMP180;6674;49.152;11.918;2022-12-18T11:16:52;97380.34;;;-2.11
13219;BMP180;6674;49.152;11.918;2022-12-18T11:19:23;97392.34;;;-2.02
13219;BMP180;6674;49.152;11.918;2022-12-18T11:21:55;97386.88;;;-1.96
13219;BMP180;6674;49.152;11.918;2022-12-18T11:24:26;97388.63;;;-1.96
13219;BMP180;6674;49.152;11.918;2022-12-18T11:26:54;97380.91;;;-1.95
13219;BMP180;6674;49.152;11.918;2022-12-18T11:29:24;97379.09;;;-1.93
13219;BMP180;6674;49.152;11.918;2022-12-18T11:32:20;97366.34;;;-1.91
13219;BMP180;6674;49.152;11.918;2022-12-18T11:34:51;97366.56;;;-1.94
13219;BMP180;6674;49.152;11.918;2022-12-18T11:37:20;97375.78;;;-2.06
13219;BMP180;6674;49.152;11.918;2022-12-18T11:39:50;97372.44;;;-2.06
13219;BMP180;6674;49.152;11.918;2022-12-18T11:42:24;97372.13;;;-2.02
13219;BMP180;6674;49.152;11.918;2022-12-18T11:44:57;97378.53;;;-2.09
13219;BMP180;6674;49.152;11.918;2022-12-18T11:47:28;97368.41;;;-2.09
13219;BMP180;6674;49.152;11.918;2022-12-18T11:50:00;97368.81;;;-2.15
13219;BMP180;6674;49.152;11.918;2022-12-18T11:52:32;97372.47;;;-2.18
13219;BMP180;6674;49.152;11.918;2022-12-18T11:55:04;97376.78;;;-2.08
13219;BMP180;6674;49.152;11.918;2022-12-18T11:57:40;97380.84;;;-2.06
13219;BMP180;6674;49.152;11.918;2022-12-18T12:00:12;97376.28;;;-2.01
13219;BMP180;6674;49.152;11.918;2022-12-18T12:03:14;97376.28;;;-2.01
13219;BMP180;6674;49.152;11.918;2022-12-18T12:05:50;97373.69;;;-2.12
13219;BMP180;6674;49.152;11.918;2022-12-18T12:08:32;97361.28;;;-1.91
13219;BMP180;6674;49.152;11.918;2022-12-18T12:11:09;97352.22;;;-2.06
13219;BMP180;6674;49.152;11.918;2022-12-18T12:13:46;97353.63;;;-2.02
13219;BMP180;6674;49.152;11.918;2022-12-18T12:16:18;97339.56;;;-2.06
13219;BMP180;6674;49.152;11.918;2022-12-18T12:19:00;97337.91;;;-2.18
13219;BMP180;6674;49.152;11.918;2022-12-18T12:21:36;97334.88;;;-2.23
13219;BMP180;6674;49.152;11.918;2022-12-18T12:24:12;97318.31;;;-2.27
13219;BMP180;6674;49.152;11.918;2022-12-18T12:26:49;97322.34;;;-2.24
13219;BMP180;6674;49.152;11.918;2022-12-18T12:29:31;97327.06;;;-2.08
13219;BMP180;6674;49.152;11.918;2022-12-18T12:32:11;97331.19;;;-2.07
13219;BMP180;6674;49.152;11.918;2022-12-18T12:34:51;97337.19;;;-2.20
13219;BMP180;6674;49.152;11.918;2022-12-18T12:37:30;97329.03;;;-2.23
13219;BMP180;6674;49.152;11.918;2022-12-18T12:40:01;97331.75;;;-2.26
13219;BMP180;6674;49.152;11.918;2022-12-18T12:42:33;97321.72;;;-2.15
13219;BMP180;6674;49.152;11.918;2022-12-18T12:45:23;97316.91;;;-2.31
13219;BMP180;6674;49.152;11.918;2022-12-18T12:47:53;97317.94;;;-2.33
13219;BMP180;6674;49.152;11.918;2022-12-18T12:50:22;97326.00;;;-2.28
13219;BMP180;6674;49.152;11.918;2022-12-18T12:52:52;97318.34;;;-2.39
13219;BMP180;6674;49.152;11.918;2022-12-18T12:55:21;97321.44;;;-2.23
13219;BMP180;6674;49.152;11.918;2022-12-18T12:57:57;97320.63;;;-2.24
13219;BMP180;6674;49.152;11.918;2022-12-18T13:00:30;97321.28;;;-2.10
13219;BMP180;6674;49.152;11.918;2022-12-18T13:03:03;97309.19;;;-2.17
13219;BMP180;6674;49.152;11.918;2022-12-18T13:05:41;97322.25;;;-2.00
13219;BMP180;6674;49.152;11.918;2022-12-18T13:08:11;97318.69;;;-1.85
13219;BMP180;6674;49.152;11.918;2022-12-18T13:10:40;97314.31;;;-1.83
13219;BMP180;6674;49.152;11.918;2022-12-18T13:13:08;97333.41;;;-1.79
13219;BMP180;6674;49.152;11.918;2022-12-18T13:15:38;97329.84;;;-2.00
13219;BMP180;6674;49.152;11.918;2022-12-18T13:21:08;97332.28;;;-1.75
13219;BMP180;6674;49.152;11.918;2022-12-18T13:23:39;97322.53;;;-1.69
13219;BMP180;6674;49.152;11.918;2022-12-18T13:26:31;97324.69;;;-1.75
13219;BMP180;6674;49.152;11.918;2022-12-18T13:28:59;97325.22;;;-1.82
13219;BMP180;6674;49.152;11.918;2022-12-18T13:34:33;97320.13;;;-1.70
13219;BMP180;6674;49.152;11.918;2022-12-18T13:43:26;97320.13;;;-1.70
13219;BMP180;6674;49.152;11.918;2022-12-18T13:46:02;97317.31;;;-1.78
13219;BMP180;6674;49.152;11.918;2022-12-18T13:48:32;97309.84;;;-1.79
13219;BMP180;6674;49.152;11.918;2022-12-18T13:51:02;97310.84;;;-1.82
13219;BMP180;6674;49.152;11.918;2022-12-18T13:53:37;97311.78;;;-1.83
13219;BMP180;6674;49.152;11.918;2022-12-18T13:56:05;97303.63;;;-1.75
13219;BMP180;6674;49.152;11.918;2022-12-18T13:58:34;97310.63;;;-1.79
13219;BMP180;6674;49.152;11.918;2022-12-18T14:01:01;97311.13;;;-1.97
13219;BMP180;6674;49.152;11.918;2022-12-18T14:03:30;97318.75;;;-2.10
13219;BMP180;6674;49.152;11.918;2022-12-18T14:06:08;97317.44;;;-2.03
13219;BMP180;6674;49.152;11.918;2022-12-18T14:08:38;97312.59;;;-2.06
13219;BMP180;6674;49.152;11.918;2022-12-18T14:11:06;97315.13;;;-2.06
13219;BMP180;6674;49.152;11.918;2022-12-18T14:13:37;97318.06;;;-2.12
13219;BMP180;6674;49.152;11.918;2022-12-18T14:16:05;97309.84;;;-2.38
13219;BMP180;6674;49.152;11.918;2022-12-18T14:18:38;97306.41;;;-2.37
13219;BMP180;6674;49.152;11.918;2022-12-18T14:21:17;97303.66;;;-2.34
13219;BMP180;6674;49.152;11.918;2022-12-18T14:23:45;97302.19;;;-2.37
13219;BMP180;6674;49.152;11.918;2022-12-18T14:26:22;97301.41;;;-2.50
13219;BMP180;6674;49.152;11.918;2022-12-18T14:28:50;97306.94;;;-2.45
13219;BMP180;6674;49.152;11.918;2022-12-18T14:31:18;97300.00;;;-2.66
13219;BMP180;6674;49.152;11.918;2022-12-18T14:33:45;97291.34;;;-2.87
13219;BMP180;6674;49.152;11.918;2022-12-18T14:36:15;97286.09;;;-2.96
13219;BMP180;6674;49.152;11.918;2022-12-18T14:38:42;97294.88;;;-2.89
13219;BMP180;6674;49.152;11.918;2022-12-18T14:41:11;97296.50;;;-2.88